createdAt,value
2019-05-06T00:02:43.575Z,14.97
2019-05-06T00:06:52.008Z,17.87
2019-05-06T00:11:00.259Z,16.80
2019-05-06T00:15:08.160Z,15.27
2019-05-06T00:19:16.082Z,24.97
2019-05-06T00:23:39.002Z,19.03
2019-05-06T00:28:06.152Z,17.47
2019-05-06T00:32:15.044Z,17.03
2019-05-06T00:36:23.753Z,18.97
2019-05-06T00:40:35.659Z,24.67
2019-05-06T00:44:44.302Z,21.63
2019-05-06T00:48:54.193Z,29.57
2019-05-06T00:53:04.625Z,19.47
2019-05-06T00:57:13.967Z,20.67
2019-05-06T01:01:27.007Z,18.50
2019-05-06T01:05:33.755Z,17.90
2019-05-06T01:09:43.827Z,23.53
2019-05-06T01:14:06.046Z,13.80
2019-05-06T01:18:14.260Z,17.43
2019-05-06T01:22:24.500Z,16.20
2019-05-06T01:26:33.726Z,20.30
2019-05-06T01:30:44.374Z,21.73
2019-05-06T01:34:53.673Z,16.73
2019-05-06T01:39:28.196Z,17.13
2019-05-06T01:43:36.925Z,21.20
2019-05-06T01:47:44.542Z,15.27
2019-05-06T01:51:54.614Z,17.87
2019-05-06T01:56:03.653Z,22.00
2019-05-06T02:00:14.064Z,19.00
2019-05-06T02:04:24.310Z,20.83
2019-05-06T02:08:33.702Z,20.77
2019-05-06T02:12:41.330Z,14.67
2019-05-06T02:16:49.422Z,19.33
2019-05-06T02:21:02.409Z,14.17
2019-05-06T02:25:14.299Z,15.10
2019-05-06T02:29:24.813Z,21.93
2019-05-06T02:33:37.956Z,17.87
2019-05-06T02:37:46.723Z,14.57
2019-05-06T02:41:55.733Z,20.63
2019-05-06T02:46:04.624Z,18.53
2019-05-06T02:50:15.319Z,17.27
2019-05-06T02:54:23.629Z,20.30
2019-05-06T02:58:33.022Z,15.87
2019-05-06T03:02:44.914Z,17.30
2019-05-06T03:06:53.278Z,14.03
2019-05-06T03:11:03.630Z,12.57
2019-05-06T03:15:16.227Z,18.77
2019-05-06T03:19:24.361Z,16.80
2019-05-06T03:23:35.469Z,17.23
2019-05-06T03:27:46.977Z,18.93
2019-05-06T03:31:56.352Z,16.73
2019-05-06T03:36:15.436Z,15.33
2019-05-06T03:40:14.573Z,15.17
2019-05-06T03:44:23.937Z,22.77
2019-05-06T03:48:35.358Z,15.67
2019-05-06T03:52:45.076Z,23.63
2019-05-06T03:56:55.601Z,19.70
2019-05-06T04:01:03.958Z,18.07
2019-05-06T04:05:13.295Z,13.87
2019-05-06T04:09:24.078Z,18.47
2019-05-06T04:13:33.172Z,14.90
2019-05-06T04:18:03.638Z,15.63
2019-05-06T04:22:48.076Z,19.23
2019-05-06T04:27:06.502Z,19.43
2019-05-06T04:31:14.925Z,14.23
2019-05-06T04:35:23.193Z,14.13
2019-05-06T04:39:33.002Z,21.80
2019-05-06T04:43:43.840Z,17.77
2019-05-06T04:47:53.506Z,22.17
2019-05-06T04:52:03.663Z,22.40
2019-05-06T04:56:14.129Z,21.50
2019-05-06T05:00:23.247Z,22.13
2019-05-06T05:04:32.785Z,19.93
2019-05-06T05:08:42.573Z,16.53
2019-05-06T05:13:03.370Z,11.80
2019-05-06T05:17:25.305Z,20.07
2019-05-06T05:21:32.983Z,21.60
2019-05-06T05:25:42.625Z,20.67
2019-05-06T05:29:52.227Z,19.83
2019-05-06T05:34:02.112Z,16.20
2019-05-06T05:38:09.883Z,21.30
2019-05-06T05:42:27.525Z,19.50
2019-05-06T05:46:35.427Z,18.87
2019-05-06T05:50:45.165Z,20.47
2019-05-06T05:54:55.582Z,19.60
2019-05-06T05:59:03.301Z,24.20
2019-05-06T06:03:12.928Z,23.47
2019-05-06T06:07:22.918Z,16.43
2019-05-06T06:12:08.245Z,19.23
2019-05-06T06:16:44.749Z,19.90
2019-05-06T06:21:17.334Z,17.77
2019-05-06T06:25:14.189Z,22.47
2019-05-06T06:29:22.791Z,14.77
2019-05-06T06:33:32.965Z,15.10
2019-05-06T06:38:02.629Z,21.67
2019-05-06T06:42:09.886Z,18.37
2019-05-06T06:46:18.636Z,12.27
2019-05-06T06:50:26.330Z,15.67
2019-05-06T06:54:34.561Z,19.23
2019-05-06T06:59:02.544Z,20.53
2019-05-06T07:03:32.710Z,18.57
2019-05-06T07:07:47.144Z,16.93
2019-05-06T07:11:52.580Z,21.85
2019-05-06T07:16:02.783Z,16.27
2019-05-06T07:20:13.234Z,13.93
2019-05-06T07:24:22.852Z,15.33
2019-05-06T07:28:32.673Z,16.73
2019-05-06T07:32:42.381Z,17.85
2019-05-06T07:36:49.772Z,15.93
2019-05-06T07:41:14.892Z,14.23
2019-05-06T07:45:42.240Z,15.77
2019-05-06T07:49:53.144Z,16.27
2019-05-06T07:54:02.839Z,20.68
2019-05-06T07:58:13.571Z,18.30
2019-05-06T08:02:22.848Z,14.33
2019-05-06T08:06:32.169Z,17.50
2019-05-06T08:10:42.251Z,19.17
2019-05-06T08:14:49.743Z,17.27
2019-05-06T08:18:59.291Z,17.35
2019-05-06T08:23:27.298Z,11.50
2019-05-06T08:27:35.601Z,22.17
2019-05-06T08:31:43.821Z,29.13
2019-05-06T08:35:54.540Z,18.57
2019-05-06T08:40:03.355Z,22.23
2019-05-06T08:44:12.747Z,23.73
2019-05-06T08:48:21.998Z,25.97
2019-05-06T08:52:43.899Z,30.27
2019-05-06T08:56:52.414Z,30.67
2019-05-06T09:01:06.970Z,25.48
2019-05-06T09:05:15.453Z,18.67
2019-05-06T09:09:24.717Z,20.85
2019-05-06T09:13:32.844Z,25.80
2019-05-06T09:17:42.061Z,25.27
2019-05-06T09:21:50.119Z,24.87
2019-05-06T09:25:57.907Z,20.40
2019-05-06T09:30:14.220Z,20.53
2019-05-06T09:34:37.276Z,19.70
2019-05-06T09:38:44.898Z,19.77
2019-05-06T09:42:53.220Z,27.23
2019-05-06T09:47:02.437Z,21.30
2019-05-06T09:51:13.098Z,20.93
2019-05-06T09:55:34.021Z,20.20
2019-05-06T09:59:42.159Z,21.35
2019-05-06T10:03:49.982Z,19.23
2019-05-06T10:07:57.912Z,18.00
2019-05-06T10:12:05.723Z,18.77
2019-05-06T10:16:13.600Z,21.57
2019-05-06T10:20:22.348Z,24.27
2019-05-06T10:24:32.259Z,22.67
2019-05-06T10:28:52.378Z,21.47
2019-05-06T10:33:02.165Z,22.53
2019-05-06T10:37:44.002Z,21.20
2019-05-06T10:42:13.237Z,29.80
2019-05-06T10:46:22.517Z,21.02
2019-05-06T10:50:35.103Z,24.27
2019-05-06T10:54:42.794Z,26.05
2019-05-06T10:58:52.778Z,23.18
2019-05-06T11:03:19.406Z,18.00
2019-05-06T11:07:31.278Z,26.40
2019-05-06T11:11:38.685Z,19.60
2019-05-06T11:15:46.942Z,18.27
2019-05-06T11:19:54.797Z,22.80
2019-05-06T11:24:05.984Z,23.92
2019-05-06T11:28:43.816Z,19.05
2019-05-06T11:33:04.858Z,27.20
2019-05-06T11:37:27.989Z,29.40
2019-05-06T11:41:36.300Z,26.03
2019-05-06T11:45:46.559Z,24.47
2019-05-06T11:49:56.686Z,26.57
2019-05-06T11:54:16.497Z,27.37
2019-05-06T11:58:32.680Z,13.65
2019-05-06T12:02:44.253Z,21.73
2019-05-06T12:06:52.614Z,28.30
2019-05-06T12:10:59.895Z,28.03
2019-05-06T12:15:08.488Z,19.93
2019-05-06T12:19:16.249Z,22.00
2019-05-06T12:23:24.214Z,17.60
2019-05-06T12:27:47.528Z,19.07
2019-05-06T12:32:14.319Z,18.17
2019-05-06T12:36:22.924Z,23.50
2019-05-06T12:40:32.438Z,23.80
2019-05-06T12:44:41.438Z,23.47
2019-05-06T12:48:52.151Z,18.45
2019-05-06T12:53:01.111Z,25.45
2019-05-06T12:57:12.617Z,19.70
2019-05-06T13:01:20.991Z,22.07
2019-05-06T13:05:28.917Z,19.67
2019-05-06T13:09:36.744Z,17.03
2019-05-06T13:13:56.596Z,29.80
2019-05-06T13:17:55.179Z,25.63
2019-05-06T13:22:03.961Z,28.67
2019-05-06T13:26:13.201Z,24.53
2019-05-06T13:30:22.827Z,23.93
2019-05-06T13:34:33.324Z,26.30
2019-05-06T13:38:42.639Z,25.23
2019-05-06T13:43:08.264Z,22.37
2019-05-06T13:47:25.842Z,24.67
2019-05-06T13:51:35.154Z,25.37
2019-05-06T13:55:42.996Z,20.30
2019-05-06T13:59:53.260Z,24.63
2019-05-06T14:04:03.752Z,23.93
2019-05-06T14:08:13.042Z,20.23
2019-05-06T14:12:22.095Z,16.10
2019-05-06T14:16:33.294Z,25.93
2019-05-06T14:20:42.769Z,26.13
2019-05-06T14:25:09.124Z,27.40
2019-05-06T14:29:23.506Z,22.97
2019-05-06T14:33:32.282Z,28.47
2019-05-06T14:37:42.171Z,20.30
2019-05-06T14:41:53.434Z,29.10
2019-05-06T14:46:01.737Z,21.33
2019-05-06T14:50:14.191Z,30.90
2019-05-06T14:54:21.720Z,23.00
2019-05-06T14:58:29.073Z,27.60
2019-05-06T15:02:37.399Z,24.80
2019-05-06T15:06:45.198Z,23.13
2019-05-06T15:10:53.745Z,21.43
2019-05-06T15:15:03.845Z,19.03
2019-05-06T15:19:12.886Z,23.83
2019-05-06T15:23:22.430Z,23.63
2019-05-06T15:27:30.014Z,23.23
2019-05-06T15:31:57.189Z,26.53
2019-05-06T15:36:12.896Z,21.87
2019-05-06T15:40:31.886Z,19.73
2019-05-06T15:44:35.260Z,18.33
2019-05-06T15:48:42.079Z,15.37
2019-05-06T15:52:53.621Z,21.20
2019-05-06T15:57:00.614Z,23.17
2019-05-06T16:01:08.516Z,23.73
2019-05-06T16:05:20.097Z,23.40
2019-05-06T16:09:26.096Z,22.30
2019-05-06T16:13:34.097Z,21.20
2019-05-06T16:17:42.689Z,32.97
2019-05-06T16:21:52.352Z,26.50
2019-05-06T16:26:02.814Z,26.47
2019-05-06T16:30:13.128Z,20.23
2019-05-06T16:34:22.760Z,19.60
2019-05-06T16:38:32.349Z,28.00
2019-05-06T16:42:45.345Z,6.90
2019-05-06T16:46:52.141Z,7.83
2019-05-06T16:50:59.987Z,5.30
2019-05-06T16:55:11.607Z,6.20
2019-05-06T16:59:19.447Z,2.77
2019-05-06T17:03:42.840Z,6.27
2019-05-06T17:07:52.591Z,3.30
2019-05-06T17:12:04.294Z,2.63
2019-05-06T17:16:10.487Z,2.87
2019-05-06T17:20:19.069Z,7.73
2019-05-06T17:24:26.821Z,4.00
2019-05-06T17:28:44.254Z,11.70
2019-05-06T17:32:55.358Z,6.77
2019-05-06T17:37:13.181Z,4.03
2019-05-06T17:41:23.728Z,3.40
2019-05-06T17:46:01.082Z,7.03
2019-05-06T17:49:59.656Z,4.30
2019-05-06T17:54:08.449Z,5.83
2019-05-06T17:58:16.530Z,5.13
2019-05-06T18:02:25.516Z,6.17
2019-05-06T18:06:33.535Z,5.17
2019-05-06T18:10:42.673Z,5.47
2019-05-06T18:14:53.381Z,6.47
2019-05-06T18:19:03.135Z,5.60
2019-05-06T18:23:12.890Z,6.80
2019-05-06T18:27:22.623Z,5.77
2019-05-06T18:31:30.389Z,5.40
2019-05-06T18:35:38.365Z,4.87
2019-05-06T18:39:46.117Z,5.80
2019-05-06T18:43:53.789Z,7.33
2019-05-06T18:48:02.781Z,6.93
2019-05-06T18:52:12.980Z,5.17
2019-05-06T18:56:19.738Z,6.47
2019-05-06T19:00:28.228Z,5.03
2019-05-06T19:04:42.195Z,5.10
2019-05-06T19:08:56.231Z,4.83
2019-05-06T19:13:03.715Z,3.70
2019-05-06T19:17:13.174Z,4.23
2019-05-06T19:21:24.233Z,3.60
2019-05-06T19:25:33.973Z,4.10
2019-05-06T19:29:38.923Z,7.60
2019-05-06T19:33:46.393Z,3.53
2019-05-06T19:37:54.166Z,3.47
2019-05-06T19:42:04.704Z,3.70
2019-05-06T19:46:12.084Z,3.63
2019-05-06T19:50:23.549Z,3.97
2019-05-06T19:54:29.536Z,3.80
2019-05-06T19:58:37.379Z,3.90
2019-05-06T20:02:44.925Z,3.33
2019-05-06T20:07:02.624Z,3.93
2019-05-06T20:11:25.534Z,3.73
2019-05-06T20:15:37.540Z,3.50
2019-05-06T20:19:45.425Z,4.67
2019-05-06T20:23:53.318Z,5.83
2019-05-06T20:28:02.369Z,4.10
2019-05-06T20:32:12.149Z,4.40
2019-05-06T20:36:22.394Z,7.07
2019-05-06T20:40:32.438Z,3.30
2019-05-06T20:44:39.142Z,3.50
2019-05-06T20:48:47.562Z,3.80
2019-05-06T20:52:55.778Z,4.20
2019-05-06T20:57:03.691Z,3.77
2019-05-06T21:01:11.336Z,4.67
2019-05-06T21:05:19.205Z,4.47
2019-05-06T21:09:26.937Z,4.03
2019-05-06T21:13:35.753Z,4.23
2019-05-06T21:17:44.222Z,4.33
2019-05-06T21:21:52.721Z,3.90
2019-05-06T21:26:03.204Z,5.03
2019-05-06T21:30:13.080Z,4.03
2019-05-06T21:34:22.324Z,3.17
2019-05-06T21:38:30.591Z,3.20
2019-05-06T21:42:38.389Z,3.50
2019-05-06T21:46:46.305Z,4.27
2019-05-06T21:50:54.369Z,3.43
2019-05-06T21:55:02.626Z,4.80
2019-05-06T21:59:12.945Z,3.37
2019-05-06T22:03:22.802Z,3.07
2019-05-06T22:07:30.495Z,3.43
2019-05-06T22:11:38.511Z,3.57
2019-05-06T22:15:46.909Z,2.73
2019-05-06T22:19:55.159Z,3.80
2019-05-06T22:24:04.793Z,4.47
2019-05-06T22:28:12.609Z,3.57
2019-05-06T22:32:20.084Z,3.33
2019-05-06T22:36:27.542Z,3.17
2019-05-06T22:40:35.635Z,5.33
2019-05-06T22:44:44.883Z,5.43
2019-05-06T22:48:54.559Z,3.50
2019-05-06T22:53:02.380Z,3.23
2019-05-06T22:57:12.031Z,3.30
2019-05-06T23:01:47.992Z,5.93
2019-05-06T23:05:56.039Z,3.60
2019-05-06T23:10:04.934Z,3.60
2019-05-06T23:14:27.627Z,5.03
2019-05-06T23:18:24.400Z,5.87
2019-05-06T23:22:32.536Z,4.00
2019-05-06T23:26:40.261Z,3.80
2019-05-06T23:30:48.583Z,4.23
2019-05-06T23:34:56.373Z,3.63
2019-05-06T23:39:58.161Z,4.97
2019-05-06T23:44:45.964Z,4.33
2019-05-06T23:49:26.792Z,4.50
2019-05-06T23:54:12.609Z,5.50
2019-05-06T23:58:18.253Z,4.27
